createdAt,value
2016-01-07T00:00:08.482Z,-10.26
2016-01-07T00:00:24.076Z,-10.31
2016-01-07T00:00:39.391Z,-10.2
2016-01-07T00:00:55.000Z,-10.26
2016-01-07T00:01:10.594Z,-10.28
2016-01-07T00:01:26.328Z,-10.27
2016-01-07T00:01:41.877Z,-10.27
2016-01-07T00:01:57.127Z,-10.22
2016-01-07T00:02:12.393Z,-10.34
2016-01-07T00:02:27.643Z,-10.26
2016-01-07T00:02:42.990Z,-10.28
2016-01-07T00:02:58.740Z,-10.28
2016-01-07T00:03:14.490Z,-10.28
2016-01-07T00:03:30.006Z,-10.38
2016-01-07T00:03:45.509Z,-10.23
2016-01-07T00:04:00.712Z,-10.37
2016-01-07T00:04:16.228Z,-10.34
2016-01-07T00:04:31.837Z,-10.26
2016-01-07T00:05:01.339Z,-10.37
2016-01-07T00:05:16.745Z,-10.4
2016-01-07T00:05:35.245Z,-10.31
2016-01-07T00:05:50.608Z,-10.37
2016-01-07T00:06:06.889Z,-10.4
2016-01-07T00:06:22.483Z,-10.3
2016-01-07T00:06:37.814Z,-10.3
2016-01-07T00:06:53.048Z,-10.45
2016-01-07T00:07:08.736Z,-10.36
2016-01-07T00:07:27.220Z,-10.36
2016-01-07T00:07:42.613Z,-10.4
2016-01-07T00:08:01.253Z,-10.36
2016-01-07T00:08:16.707Z,-10.4
2016-01-07T00:08:32.097Z,-10.38
2016-01-07T00:08:50.553Z,-10.38
2016-01-07T00:09:05.944Z,-10.38
2016-01-07T00:09:21.444Z,-10.36
2016-01-07T00:09:37.241Z,-10.31
2016-01-07T00:09:52.743Z,-10.37
2016-01-07T00:10:08.133Z,-10.41
2016-01-07T00:10:23.399Z,-10.37
2016-01-07T00:10:39.040Z,-10.31
2016-01-07T00:10:54.933Z,-10.37
2016-01-07T00:11:10.308Z,-10.36
2016-01-07T00:11:25.918Z,-10.4
2016-01-07T00:11:41.624Z,-10.37
2016-01-07T00:11:57.077Z,-10.4
2016-01-07T00:12:12.749Z,-10.36
2016-01-07T00:12:28.264Z,-10.33
2016-01-07T00:12:43.954Z,-10.4
2016-01-07T00:12:59.626Z,-10.34
2016-01-07T00:13:15.251Z,-10.4
2016-01-07T00:13:30.563Z,-10.41
2016-01-07T00:13:46.583Z,-10.41
2016-01-07T00:14:02.052Z,-10.4
2016-01-07T00:14:17.739Z,-10.33
2016-01-07T00:14:33.005Z,-10.34
2016-01-07T00:14:48.241Z,-10.38
2016-01-07T00:15:03.710Z,-10.37
2016-01-07T00:15:19.476Z,-10.38
2016-01-07T00:15:34.819Z,-10.38
2016-01-07T00:15:50.306Z,-10.36
2016-01-07T00:16:05.618Z,-10.3
2016-01-07T00:16:21.274Z,-10.34
2016-01-07T00:16:36.931Z,-10.36
2016-01-07T00:16:52.496Z,-10.37
2016-01-07T00:17:08.496Z,-10.41
2016-01-07T00:17:24.199Z,-10.4
2016-01-07T00:17:39.684Z,-10.4
2016-01-07T00:17:54.843Z,-10.38
2016-01-07T00:18:10.312Z,-10.38
2016-01-07T00:18:25.562Z,-10.38
2016-01-07T00:18:41.109Z,-10.37
2016-01-07T00:18:55.549Z,-10.41
2016-01-07T00:19:10.908Z,-10.38
2016-01-07T00:19:26.377Z,-10.44
2016-01-07T00:19:41.783Z,-10.41
2016-01-07T00:19:57.754Z,-10.41
2016-01-07T00:20:13.192Z,-10.38
2016-01-07T00:20:28.504Z,-10.45
2016-01-07T00:20:43.898Z,-10.37
2016-01-07T00:20:59.460Z,-10.36
2016-01-07T00:21:15.492Z,-10.34
2016-01-07T00:21:30.788Z,-10.33
2016-01-07T00:21:46.135Z,-10.36
2016-01-07T00:22:01.245Z,-10.31
2016-01-07T00:22:16.573Z,-10.37
2016-01-07T00:22:31.948Z,-10.38
2016-01-07T00:22:47.137Z,-10.37
2016-01-07T00:23:02.825Z,-10.33
2016-01-07T00:23:18.856Z,-10.4
2016-01-07T00:23:34.122Z,-10.34
2016-01-07T00:23:49.454Z,-10.34
2016-01-07T00:24:04.782Z,-10.33
2016-01-07T00:24:20.047Z,-10.36
2016-01-07T00:24:35.047Z,-10.4
2016-01-07T00:24:50.706Z,-10.34
2016-01-07T00:25:06.190Z,-10.34
2016-01-07T00:25:35.424Z,-10.4
2016-01-07T00:26:04.912Z,-10.37
2016-01-07T00:26:20.802Z,-10.34
2016-01-07T00:26:36.240Z,-10.36
2016-01-07T00:26:51.539Z,-10.41
2016-01-07T00:27:06.867Z,-10.4
2016-01-07T00:27:22.633Z,-10.41
2016-01-07T00:27:38.383Z,-10.36
2016-01-07T00:27:53.495Z,-10.36
2016-01-07T00:28:08.729Z,-10.37
2016-01-07T00:28:23.979Z,-10.36
2016-01-07T00:28:39.229Z,-10.38
2016-01-07T00:28:54.559Z,-10.36
2016-01-07T00:29:13.106Z,-10.33
2016-01-07T00:29:28.794Z,-10.38
2016-01-07T00:29:43.981Z,-10.4
2016-01-07T00:29:59.203Z,-10.38
2016-01-07T00:30:15.219Z,-10.37
2016-01-07T00:30:30.531Z,-10.4
2016-01-07T00:30:45.984Z,-10.37
2016-01-07T00:31:01.097Z,-10.38
2016-01-07T00:31:16.362Z,-10.36
2016-01-07T00:31:31.753Z,-10.4
2016-01-07T00:31:46.940Z,-10.36
2016-01-07T00:32:02.317Z,-10.37
2016-01-07T00:32:17.489Z,-10.41
2016-01-07T00:32:32.458Z,-10.37
2016-01-07T00:32:48.289Z,-10.31
2016-01-07T00:33:03.633Z,-10.37
2016-01-07T00:33:18.820Z,-10.37
2016-01-07T00:33:34.383Z,-10.36
2016-01-07T00:33:50.402Z,-10.36
2016-01-07T00:34:05.792Z,-10.34
2016-01-07T00:34:21.136Z,-10.37
2016-01-07T00:34:36.730Z,-10.37
2016-01-07T00:34:52.030Z,-10.33
2016-01-07T00:35:07.186Z,-10.37
2016-01-07T00:35:22.373Z,-10.33
2016-01-07T00:35:37.561Z,-10.41
2016-01-07T00:36:06.689Z,-10.34
2016-01-07T00:36:21.892Z,-10.36
2016-01-07T00:36:37.126Z,-10.34
2016-01-07T00:36:52.300Z,-10.38
2016-01-07T00:37:07.894Z,-10.34
2016-01-07T00:37:23.597Z,-10.38
2016-01-07T00:37:38.831Z,-10.33
2016-01-07T00:37:54.148Z,-10.34
2016-01-07T00:38:09.554Z,-10.47
2016-01-07T00:38:39.054Z,-10.37
2016-01-07T00:38:54.275Z,-10.38
2016-01-07T00:39:09.541Z,-10.38
2016-01-07T00:39:25.275Z,-10.38
2016-01-07T00:39:40.603Z,-10.38
2016-01-07T00:39:56.200Z,-10.37
2016-01-07T00:40:11.778Z,-10.4
2016-01-07T00:40:27.153Z,-10.41
2016-01-07T00:40:42.497Z,-10.36
2016-01-07T00:40:57.922Z,-10.41
2016-01-07T00:41:13.234Z,-10.36
2016-01-07T00:41:28.843Z,-10.31
2016-01-07T00:41:44.312Z,-10.33
2016-01-07T00:41:59.924Z,-10.38
2016-01-07T00:42:15.127Z,-10.36
2016-01-07T00:42:30.283Z,-10.37
2016-01-07T00:42:45.502Z,-10.38
2016-01-07T00:43:00.691Z,-10.44
2016-01-07T00:43:16.847Z,-10.34
2016-01-07T00:43:31.816Z,-10.36
2016-01-07T00:43:47.285Z,-10.44
2016-01-07T00:44:02.898Z,-10.34
2016-01-07T00:44:18.117Z,-10.41
2016-01-07T00:44:33.445Z,-10.4
2016-01-07T00:44:48.805Z,-10.4
2016-01-07T00:45:04.103Z,-10.33
2016-01-07T00:45:19.447Z,-10.34
2016-01-07T00:45:37.713Z,-10.37
2016-01-07T00:45:53.150Z,-10.37
2016-01-07T00:46:08.419Z,-10.37
2016-01-07T00:46:23.778Z,-10.4
2016-01-07T00:46:38.997Z,-10.4
2016-01-07T00:46:54.591Z,-10.34
2016-01-07T00:47:10.140Z,-10.34
2016-01-07T00:47:25.218Z,-10.36
2016-01-07T00:47:40.390Z,-10.38
2016-01-07T00:47:55.937Z,-10.33
2016-01-07T00:48:11.268Z,-10.34
2016-01-07T00:48:26.471Z,-10.36
2016-01-07T00:48:41.705Z,-10.3
2016-01-07T00:48:57.361Z,-10.33
2016-01-07T00:49:12.771Z,-10.34
2016-01-07T00:49:28.021Z,-10.33
2016-01-07T00:49:43.833Z,-10.37
2016-01-07T00:49:59.086Z,-10.37
2016-01-07T00:50:14.477Z,-10.31
2016-01-07T00:50:30.133Z,-10.3
2016-01-07T00:50:45.461Z,-10.41
2016-01-07T00:51:00.777Z,-10.38
2016-01-07T00:51:15.995Z,-10.37
2016-01-07T00:51:31.370Z,-10.36
2016-01-07T00:51:46.636Z,-10.36
2016-01-07T00:52:01.935Z,-10.37
2016-01-07T00:52:17.154Z,-10.33
2016-01-07T00:52:32.591Z,-10.34
2016-01-07T00:52:48.513Z,-10.37
2016-01-07T00:53:03.844Z,-10.33
2016-01-07T00:53:19.110Z,-10.38
2016-01-07T00:53:34.719Z,-10.37
2016-01-07T00:53:49.875Z,-10.41
2016-01-07T00:54:05.222Z,-10.33
2016-01-07T00:54:21.097Z,-10.34
2016-01-07T00:54:36.113Z,-10.37
2016-01-07T00:54:54.488Z,-10.41
2016-01-07T00:55:23.835Z,-10.4
2016-01-07T00:55:39.475Z,-10.37
2016-01-07T00:55:54.850Z,-10.31
2016-01-07T00:56:10.602Z,-10.34
2016-01-07T00:56:26.024Z,-10.41
2016-01-07T00:56:41.415Z,-10.37
2016-01-07T00:56:56.837Z,-10.36
2016-01-07T00:57:12.527Z,-10.33
2016-01-07T00:57:31.074Z,-10.38
2016-01-07T00:57:46.605Z,-10.34
2016-01-07T00:58:01.998Z,-10.38
2016-01-07T00:58:16.982Z,-10.45
2016-01-07T00:58:32.388Z,-10.26
2016-01-07T00:58:48.060Z,-10.26
2016-01-07T00:59:03.516Z,-10.27
2016-01-07T00:59:18.735Z,-10.27
2016-01-07T00:59:34.032Z,-10.26
2016-01-07T00:59:49.391Z,-10.26
2016-01-07T01:00:04.956Z,-10.23
2016-01-07T01:00:20.768Z,-10.26
2016-01-07T01:00:35.956Z,-10.28
2016-01-07T01:00:51.284Z,-10.23
2016-01-07T01:01:06.943Z,-10.22
2016-01-07T01:01:22.131Z,-10.2
2016-01-07T01:01:37.162Z,-10.28
2016-01-07T01:01:52.225Z,-10.3
2016-01-07T01:02:07.478Z,-10.23
2016-01-07T01:02:22.556Z,-10.27
2016-01-07T01:02:37.884Z,-10.3
2016-01-07T01:02:53.149Z,-10.23
2016-01-07T01:03:08.423Z,-10.31
2016-01-07T01:03:24.173Z,-10.19
2016-01-07T01:03:39.845Z,-10.22
2016-01-07T01:03:55.032Z,-10.26
2016-01-07T01:04:13.270Z,-10.23
2016-01-07T01:04:28.645Z,-10.23
2016-01-07T01:04:44.082Z,-10.22
2016-01-07T01:04:59.410Z,-10.23
2016-01-07T01:05:15.273Z,-10.27
2016-01-07T01:05:30.945Z,-10.31
2016-01-07T01:05:49.288Z,-10.31
2016-01-07T01:06:04.587Z,-10.31
2016-01-07T01:06:19.962Z,-10.23
2016-01-07T01:06:35.712Z,-10.22
2016-01-07T01:06:51.165Z,-10.37
2016-01-07T01:07:06.512Z,-10.27
2016-01-07T01:07:21.793Z,-10.37
2016-01-07T01:07:37.200Z,-10.28
2016-01-07T01:07:53.012Z,-10.27
2016-01-07T01:08:08.248Z,-10.38
2016-01-07T01:08:24.061Z,-10.28
2016-01-07T01:08:40.030Z,-10.36
2016-01-07T01:08:55.342Z,-10.37
2016-01-07T01:09:10.720Z,-10.31
2016-01-07T01:09:26.048Z,-10.34
2016-01-07T01:09:41.705Z,-10.28
2016-01-07T01:09:57.376Z,-10.28
2016-01-07T01:10:12.644Z,-10.38
2016-01-07T01:10:28.019Z,-10.37
2016-01-07T01:10:43.691Z,-10.36
2016-01-07T01:10:58.863Z,-10.37
2016-01-07T01:11:14.178Z,-10.41
2016-01-07T01:11:29.725Z,-10.36
2016-01-07T01:11:45.272Z,-10.38
2016-01-07T01:12:00.444Z,-10.33
2016-01-07T01:12:15.681Z,-10.41
2016-01-07T01:12:31.056Z,-10.41
2016-01-07T01:12:46.134Z,-10.38
2016-01-07T01:13:01.509Z,-10.37
2016-01-07T01:13:20.091Z,-10.41
2016-01-07T01:13:35.356Z,-10.36
2016-01-07T01:13:50.872Z,-10.37
2016-01-07T01:14:06.512Z,-10.37
2016-01-07T01:14:25.265Z,-10.38
2016-01-07T01:14:40.719Z,-10.4
2016-01-07T01:14:56.047Z,-10.33
2016-01-07T01:15:11.580Z,-10.36
2016-01-07T01:15:27.017Z,-10.38
2016-01-07T01:15:42.627Z,-10.44
2016-01-07T01:15:58.642Z,-10.34
2016-01-07T01:16:14.177Z,-10.47
2016-01-07T01:16:29.442Z,-10.37
2016-01-07T01:16:45.083Z,-10.37
2016-01-07T01:17:00.536Z,-10.38
2016-01-07T01:17:16.320Z,-10.34
2016-01-07T01:17:31.742Z,-10.41
2016-01-07T01:17:47.383Z,-10.44
2016-01-07T01:18:02.711Z,-10.31
2016-01-07T01:18:18.089Z,-10.38
2016-01-07T01:18:33.995Z,-10.31
2016-01-07T01:18:49.589Z,-10.37
2016-01-07T01:19:04.683Z,-10.38
2016-01-07T01:19:20.264Z,-10.36
2016-01-07T01:19:38.842Z,-10.4
2016-01-07T01:19:54.264Z,-10.37
2016-01-07T01:20:09.889Z,-10.37
2016-01-07T01:20:25.594Z,-10.33
2016-01-07T01:20:44.203Z,-10.36
2016-01-07T01:20:59.813Z,-10.4
2016-01-07T01:21:15.128Z,-10.33
2016-01-07T01:21:30.628Z,-10.4
2016-01-07T01:22:16.569Z,-10.36
2016-01-07T01:22:36.100Z,-10.41
2016-01-07T01:22:51.709Z,-10.36
2016-01-07T01:23:08.131Z,-10.34
2016-01-07T01:23:23.446Z,-10.38
2016-01-07T01:23:38.930Z,-10.37
2016-01-07T01:23:54.258Z,-10.34
2016-01-07T01:24:09.383Z,-10.41
2016-01-07T01:24:24.824Z,-10.33
2016-01-07T01:24:40.152Z,-10.4
2016-01-07T01:24:55.402Z,-10.31
2016-01-07T01:25:10.949Z,-10.28
2016-01-07T01:25:26.263Z,-10.4
2016-01-07T01:25:41.576Z,-10.28
2016-01-07T01:25:56.763Z,-10.31
2016-01-07T01:26:12.013Z,-10.28
2016-01-07T01:26:27.767Z,-10.28
2016-01-07T01:26:43.298Z,-10.3
2016-01-07T01:26:59.158Z,-10.22
2016-01-07T01:27:14.472Z,-10.27
2016-01-07T01:27:30.082Z,-10.23
2016-01-07T01:27:45.847Z,-10.26
2016-01-07T01:28:01.269Z,-10.28
2016-01-07T01:28:16.928Z,-10.31
2016-01-07T01:28:32.538Z,-10.31
2016-01-07T01:28:48.335Z,-10.22
2016-01-07T01:29:03.913Z,-10.33
2016-01-07T01:29:19.149Z,-10.26
2016-01-07T01:29:35.212Z,-10.2
2016-01-07T01:29:50.727Z,-10.34
2016-01-07T01:30:05.571Z,-10.2
2016-01-07T01:30:21.683Z,-10.27
2016-01-07T01:30:37.137Z,-10.22
2016-01-07T01:30:52.340Z,-10.23
2016-01-07T01:31:07.605Z,-10.23
2016-01-07T01:31:22.905Z,-10.16
2016-01-07T01:31:38.405Z,-10.22
2016-01-07T01:31:53.780Z,-10.19
2016-01-07T01:32:08.921Z,-10.23
2016-01-07T01:32:38.267Z,-10.23
2016-01-07T01:32:53.673Z,-10.2
2016-01-07T01:33:08.923Z,-10.17
2016-01-07T01:33:24.098Z,-10.2
2016-01-07T01:33:39.504Z,-10.2
2016-01-07T01:33:54.910Z,-10.22
2016-01-07T01:34:10.457Z,-10.22
2016-01-07T01:34:26.304Z,-10.22
2016-01-07T01:34:41.882Z,-10.17
2016-01-07T01:34:57.569Z,-10.3
2016-01-07T01:35:13.163Z,-10.22
2016-01-07T01:35:31.743Z,-10.17
2016-01-07T01:35:47.400Z,-10.23
2016-01-07T01:36:02.415Z,-10.19
2016-01-07T01:36:18.278Z,-10.27
2016-01-07T01:36:33.528Z,-10.22
2016-01-07T01:36:49.059Z,-10.19
2016-01-07T01:37:04.637Z,-10.2
2016-01-07T01:37:19.984Z,-10.23
2016-01-07T01:37:35.609Z,-10.2
2016-01-07T01:37:51.202Z,-10.2
2016-01-07T01:38:06.609Z,-10.33
2016-01-07T01:38:21.893Z,-10.26
2016-01-07T01:38:37.596Z,-10.19
2016-01-07T01:38:52.909Z,-10.27
2016-01-07T01:39:07.799Z,-10.3
2016-01-07T01:39:23.286Z,-10.2
2016-01-07T01:39:39.098Z,-10.22
2016-01-07T01:39:54.364Z,-10.22
2016-01-07T01:40:09.614Z,-10.2
2016-01-07T01:40:25.085Z,-10.27
2016-01-07T01:40:40.539Z,-10.26
2016-01-07T01:40:55.804Z,-10.19
2016-01-07T01:41:11.742Z,-10.22
2016-01-07T01:41:26.979Z,-10.26
2016-01-07T01:41:42.463Z,-10.19
2016-01-07T01:41:58.292Z,-10.23
2016-01-07T01:42:13.667Z,-10.15
2016-01-07T01:42:29.419Z,-10.2
2016-01-07T01:42:44.825Z,-10.19
2016-01-07T01:43:00.340Z,-10.2
2016-01-07T01:43:15.700Z,-10.2
2016-01-07T01:43:30.968Z,-10.16
2016-01-07T01:43:46.312Z,-10.19
2016-01-07T01:44:01.375Z,-10.22
2016-01-07T01:44:16.828Z,-10.22
2016-01-07T01:44:32.300Z,-10.3
2016-01-07T01:44:48.050Z,-10.23
2016-01-07T01:45:03.237Z,-10.19
2016-01-07T01:45:18.425Z,-10.28
2016-01-07T01:45:34.162Z,-10.23
2016-01-07T01:45:49.662Z,-10.19
2016-01-07T01:46:04.849Z,-10.22
2016-01-07T01:46:20.398Z,-10.2
2016-01-07T01:46:35.351Z,-10.26
2016-01-07T01:46:50.617Z,-10.22
2016-01-07T01:47:05.945Z,-10.17
2016-01-07T01:47:21.558Z,-10.2
2016-01-07T01:47:36.948Z,-10.19
2016-01-07T01:47:52.073Z,-10.16
2016-01-07T01:48:07.495Z,-10.27
2016-01-07T01:48:22.842Z,-10.2
2016-01-07T01:48:38.639Z,-10.19
2016-01-07T01:48:54.217Z,-10.16
2016-01-07T01:49:09.717Z,-10.16
2016-01-07T01:49:25.188Z,-10.23
2016-01-07T01:49:40.375Z,-10.19
2016-01-07T01:49:56.063Z,-10.12
2016-01-07T01:50:11.359Z,-10.2
2016-01-07T01:50:26.503Z,-10.17
2016-01-07T01:50:41.534Z,-10.22
2016-01-07T01:50:57.003Z,-10.17
2016-01-07T01:51:12.284Z,-10.15
2016-01-07T01:51:28.146Z,-10.15
2016-01-07T01:51:43.505Z,-10.19
2016-01-07T01:52:27.993Z,-10.22
2016-01-07T01:52:43.306Z,-10.2
2016-01-07T01:52:58.900Z,-10.17
2016-01-07T01:53:14.181Z,-10.19
2016-01-07T01:53:29.684Z,-10.15
2016-01-07T01:53:45.418Z,-10.2
2016-01-07T01:54:00.668Z,-10.2
2016-01-07T01:54:15.871Z,-10.19
2016-01-07T01:54:31.545Z,-10.26
2016-01-07T01:54:47.233Z,-10.2
2016-01-07T01:55:02.373Z,-10.16
2016-01-07T01:55:20.764Z,-10.17
2016-01-07T01:55:36.094Z,-10.19
2016-01-07T01:55:54.516Z,-10.22
2016-01-07T01:56:10.235Z,-10.22
2016-01-07T01:56:25.691Z,-10.19
2016-01-07T01:56:40.753Z,-10.19
2016-01-07T01:56:56.347Z,-10.2
2016-01-07T01:57:12.207Z,-10.2
2016-01-07T01:57:27.913Z,-10.16
2016-01-07T01:57:43.194Z,-10.22
2016-01-07T01:57:58.803Z,-10.22
2016-01-07T01:58:14.069Z,-10.22
2016-01-07T01:58:29.383Z,-10.16
2016-01-07T01:58:45.118Z,-10.16
2016-01-07T01:59:00.415Z,-10.22
2016-01-07T01:59:15.837Z,-10.19
2016-01-07T01:59:31.590Z,-10.26
2016-01-07T01:59:46.949Z,-10.2
2016-01-07T02:00:02.043Z,-10.17
2016-01-07T02:00:31.218Z,-10.17
2016-01-07T02:00:46.749Z,-10.2
2016-01-07T02:01:02.093Z,-10.23
2016-01-07T02:01:17.889Z,-10.16
2016-01-07T02:01:33.174Z,-10.16
2016-01-07T02:01:48.510Z,-10.15
2016-01-07T02:02:03.978Z,-10.16
2016-01-07T02:02:19.353Z,-10.2
2016-01-07T02:02:34.543Z,-10.17
2016-01-07T02:02:50.590Z,-10.22
2016-01-07T02:03:05.996Z,-10.17
2016-01-07T02:03:21.230Z,-10.13
2016-01-07T02:03:36.843Z,-10.2
2016-01-07T02:03:52.171Z,-10.16
2016-01-07T02:04:07.265Z,-10.1
2016-01-07T02:04:22.593Z,-10.17
2016-01-07T02:04:41.393Z,-10.19
2016-01-07T02:04:56.752Z,-10.15
2016-01-07T02:05:12.127Z,-10.17
2016-01-07T02:05:27.596Z,-10.2
2016-01-07T02:05:43.192Z,-10.23
2016-01-07T02:05:59.036Z,-10.22
2016-01-07T02:06:14.317Z,-10.15
2016-01-07T02:06:29.663Z,-10.13
2016-01-07T02:06:44.757Z,-10.19
2016-01-07T02:07:00.023Z,-10.12
2016-01-07T02:07:15.273Z,-10.07
2016-01-07T02:07:30.541Z,-10.16
2016-01-07T02:07:45.979Z,-10.16
2016-01-07T02:08:01.510Z,-10.09
2016-01-07T02:08:16.666Z,-10.09
2016-01-07T02:08:31.965Z,-10.06
2016-01-07T02:08:47.684Z,-10.06
2016-01-07T02:09:03.199Z,-10.09
2016-01-07T02:09:18.918Z,-10.12
2016-01-07T02:09:34.359Z,-10.04
2016-01-07T02:09:49.906Z,-10.13
2016-01-07T02:10:05.265Z,-10.09
2016-01-07T02:10:20.531Z,-10.07
2016-01-07T02:10:35.768Z,-10.07
2016-01-07T02:10:51.034Z,-10.02
2016-01-07T02:11:06.455Z,-10.15
2016-01-07T02:11:21.705Z,-10.1
2016-01-07T02:11:37.037Z,-10.04
2016-01-07T02:11:52.302Z,-10.09
2016-01-07T02:12:08.162Z,-10.07
2016-01-07T02:12:26.630Z,-10.06
2016-01-07T02:12:41.883Z,-10.15
2016-01-07T02:12:57.227Z,-10.06
2016-01-07T02:13:26.524Z,-10.09
2016-01-07T02:13:41.917Z,-10.04
2016-01-07T02:13:57.073Z,-10.07
2016-01-07T02:14:12.620Z,-10.02
2016-01-07T02:14:28.120Z,-10.01
2016-01-07T02:14:43.373Z,-10.07
2016-01-07T02:14:58.935Z,-10.07
2016-01-07T02:15:14.482Z,-10.15
2016-01-07T02:15:29.998Z,-10.06
2016-01-07T02:15:45.673Z,-10.02
2016-01-07T02:16:00.891Z,-10.09
2016-01-07T02:16:16.157Z,-10.02
2016-01-07T02:16:31.391Z,-10.07
2016-01-07T02:17:00.957Z,-10.06
2016-01-07T02:17:16.504Z,-10.04
2016-01-07T02:17:32.334Z,-10.07
2016-01-07T02:17:47.599Z,-10.1
2016-01-07T02:18:02.943Z,-10.06
2016-01-07T02:18:18.412Z,-10.09
2016-01-07T02:18:33.852Z,-10.06
2016-01-07T02:18:49.118Z,-10.07
2016-01-07T02:19:04.462Z,-10.09
2016-01-07T02:19:20.056Z,-10.01
2016-01-07T02:19:35.558Z,-10.01
2016-01-07T02:19:51.261Z,-10.04
2016-01-07T02:20:06.558Z,-10.06
2016-01-07T02:20:22.026Z,-10.07
2016-01-07T02:20:37.576Z,-10.04
2016-01-07T02:20:52.529Z,-10.04
2016-01-07T02:21:08.186Z,-10.09
2016-01-07T02:21:23.576Z,-10.04
2016-01-07T02:21:39.110Z,-10.06
2016-01-07T02:21:54.704Z,-10.06
2016-01-07T02:22:10.360Z,-10.04
2016-01-07T02:22:25.610Z,-10.06
2016-01-07T02:22:41.034Z,-10.1
2016-01-07T02:22:56.831Z,-10.13
2016-01-07T02:23:15.612Z,-10.09
2016-01-07T02:23:31.034Z,-10.09
2016-01-07T02:23:46.663Z,-10.02
2016-01-07T02:24:02.320Z,-10.1
2016-01-07T02:24:17.585Z,-10.04
2016-01-07T02:24:33.353Z,-10.07
2016-01-07T02:24:48.822Z,-10.06
2016-01-07T02:25:04.243Z,-10.06
2016-01-07T02:25:19.837Z,-10.07
2016-01-07T02:25:35.231Z,-10.04
2016-01-07T02:25:50.481Z,-10.07
2016-01-07T02:26:06.434Z,-10.09
2016-01-07T02:26:22.090Z,-10.06
2016-01-07T02:26:37.436Z,-10.1
2016-01-07T02:26:52.967Z,-10.2
2016-01-07T02:27:08.092Z,-10.02
2016-01-07T02:27:23.514Z,-10.06
2016-01-07T02:27:39.189Z,-10.06
2016-01-07T02:27:54.673Z,-10.06
2016-01-07T02:28:10.173Z,-10.09
2016-01-07T02:28:25.423Z,-10.06
2016-01-07T02:28:41.161Z,-10.04
2016-01-07T02:28:59.864Z,-10.06
2016-01-07T02:29:15.442Z,-10.12
2016-01-07T02:29:30.676Z,-10.09
2016-01-07T02:29:45.929Z,-10.1
2016-01-07T02:30:01.336Z,-10.07
2016-01-07T02:30:18.351Z,-10.09
2016-01-07T02:30:33.601Z,-10.09
2016-01-07T02:30:48.870Z,-10.04
2016-01-07T02:31:04.057Z,-10.02
2016-01-07T02:31:19.917Z,-10.09
2016-01-07T02:31:35.135Z,-10.06
2016-01-07T02:31:50.387Z,-10.06
2016-01-07T02:32:05.934Z,-10.02
2016-01-07T02:32:21.231Z,-10.09
2016-01-07T02:32:36.547Z,-10.09
2016-01-07T02:32:51.812Z,-10.06
2016-01-07T02:33:21.062Z,-10.1
2016-01-07T02:33:36.390Z,-10.02
2016-01-07T02:33:51.939Z,-10.13
2016-01-07T02:34:07.346Z,-10.09
2016-01-07T02:34:22.580Z,-10.06
2016-01-07T02:34:38.364Z,-10.04
2016-01-07T02:34:53.895Z,-10.07
2016-01-07T02:35:09.224Z,-10.07
2016-01-07T02:35:24.599Z,-10.07
2016-01-07T02:35:40.258Z,-10.06
2016-01-07T02:35:55.508Z,-10.02
2016-01-07T02:36:10.820Z,-10.02
2016-01-07T02:36:26.273Z,-10.09
2016-01-07T02:36:41.620Z,-10.06
2016-01-07T02:36:57.261Z,-10.13
2016-01-07T02:37:11.808Z,-10.06
2016-01-07T02:37:27.089Z,-10.04
2016-01-07T02:37:42.372Z,-10.04
2016-01-07T02:37:57.544Z,-10.09
2016-01-07T02:38:12.810Z,-10.09
2016-01-07T02:38:31.294Z,-10.09
2016-01-07T02:38:46.797Z,-10.06
2016-01-07T02:39:02.438Z,-10.09
2016-01-07T02:39:18.266Z,-10.04
2016-01-07T02:39:33.531Z,-10.04
2016-01-07T02:39:49.081Z,-10.06
2016-01-07T02:40:04.316Z,-10.1
2016-01-07T02:40:19.644Z,-10.04
2016-01-07T02:40:34.847Z,-10.07
2016-01-07T02:40:50.536Z,-10.06
2016-01-07T02:41:06.083Z,-10.04
2016-01-07T02:41:21.349Z,-10.06
2016-01-07T02:41:36.818Z,-10.09
2016-01-07T02:41:52.446Z,-10.12
2016-01-07T02:42:08.180Z,-10.07
2016-01-07T02:42:23.430Z,-10.02
2016-01-07T02:42:38.524Z,-10.07
2016-01-07T02:42:53.776Z,-10.12
2016-01-07T02:43:09.026Z,-10.07
2016-01-07T02:43:24.291Z,-10.09
2016-01-07T02:43:39.541Z,-10.12
2016-01-07T02:43:54.811Z,-10.12
2016-01-07T02:44:10.499Z,-10.07
2016-01-07T02:44:26.061Z,-10.1
2016-01-07T02:44:41.295Z,-10.15
2016-01-07T02:44:56.485Z,-10.07
2016-01-07T02:45:11.922Z,-10.06
2016-01-07T02:45:27.188Z,-10.15
2016-01-07T02:45:42.391Z,-10.16
2016-01-07T02:45:57.660Z,-10.09
2016-01-07T02:46:13.613Z,-10.13
2016-01-07T02:46:28.847Z,-10.13
2016-01-07T02:46:44.097Z,-10.1
2016-01-07T02:46:59.381Z,-10.09
2016-01-07T02:47:14.756Z,-10.06
2016-01-07T02:47:30.224Z,-10.06
2016-01-07T02:47:45.680Z,-10.13
2016-01-07T02:48:01.024Z,-10.12
2016-01-07T02:48:16.509Z,-10.17
2016-01-07T02:48:32.165Z,-10.09
2016-01-07T02:48:47.199Z,-10.07
2016-01-07T02:49:02.527Z,-10.06
2016-01-07T02:49:18.199Z,-10.19
2016-01-07T02:49:33.715Z,-10.1
2016-01-07T02:49:48.827Z,-10.19
2016-01-07T02:50:04.640Z,-10.17
2016-01-07T02:50:19.827Z,-10.19
2016-01-07T02:50:35.077Z,-10.16
2016-01-07T02:50:50.501Z,-10.15
2016-01-07T02:51:05.539Z,-10.17
2016-01-07T02:51:20.837Z,-10.19
2016-01-07T02:51:35.978Z,-10.12
2016-01-07T02:51:52.262Z,-10.23
2016-01-07T02:52:07.454Z,-10.19
2016-01-07T02:52:22.845Z,-10.22
2016-01-07T02:52:37.845Z,-10.19
2016-01-07T02:52:52.895Z,-10.19
2016-01-07T02:53:08.113Z,-10.19
2016-01-07T02:53:24.270Z,-10.1
2016-01-07T02:53:40.040Z,-10.2
2016-01-07T02:53:55.793Z,-10.19
2016-01-07T02:54:11.653Z,-10.16
2016-01-07T02:54:27.324Z,-10.2
2016-01-07T02:54:42.824Z,-10.12
2016-01-07T02:54:58.764Z,-10.19
2016-01-07T02:55:14.873Z,-10.15
2016-01-07T02:55:30.858Z,-10.13
2016-01-07T02:55:46.639Z,-10.19
2016-01-07T02:56:02.079Z,-10.16
2016-01-07T02:56:17.704Z,-10.17
2016-01-07T02:56:32.876Z,-10.15
2016-01-07T02:56:48.126Z,-10.06
2016-01-07T02:57:03.551Z,-10.13
2016-01-07T02:57:19.239Z,-10.06
2016-01-07T02:57:34.395Z,-10.09
2016-01-07T02:57:49.460Z,-10.06
2016-01-07T02:58:04.601Z,-10.12
2016-01-07T02:58:20.039Z,-10.06
2016-01-07T02:58:35.601Z,-10.09
2016-01-07T02:58:51.462Z,-10.06
2016-01-07T02:59:06.634Z,-10.09
2016-01-07T02:59:21.900Z,-10.06
2016-01-07T02:59:37.134Z,-10.19
2016-01-07T02:59:52.544Z,-10.1
2016-01-07T03:00:08.278Z,-10.12
2016-01-07T03:00:23.606Z,-10.1
2016-01-07T03:00:38.778Z,-10.09
2016-01-07T03:00:54.187Z,-10.09
2016-01-07T03:01:09.843Z,-10.09
2016-01-07T03:01:25.281Z,-10.06
2016-01-07T03:01:40.828Z,-10.01
2016-01-07T03:01:56.502Z,-10.04
2016-01-07T03:02:11.674Z,-10.09
2016-01-07T03:02:27.080Z,-10.02
2016-01-07T03:02:42.861Z,-10.07
2016-01-07T03:02:58.661Z,-10.06
2016-01-07T03:03:13.660Z,-9.99
2016-01-07T03:03:29.832Z,-10.1
2016-01-07T03:03:45.269Z,-10.06
2016-01-07T03:04:00.678Z,-10.07
2016-01-07T03:04:16.287Z,-10.06
2016-01-07T03:04:31.615Z,-10.02
2016-01-07T03:04:46.928Z,-10.02
2016-01-07T03:05:02.681Z,-10.06
2016-01-07T03:05:18.399Z,-10.09
2016-01-07T03:05:33.665Z,-10.02
2016-01-07T03:06:02.902Z,-10.06
2016-01-07T03:06:18.262Z,-10.09
2016-01-07T03:06:34.012Z,-10.04
2016-01-07T03:06:49.730Z,-9.99
2016-01-07T03:07:05.374Z,-10.02
2016-01-07T03:07:20.812Z,-10.02
2016-01-07T03:07:35.858Z,-10.02
2016-01-07T03:07:51.187Z,-10.07
2016-01-07T03:08:06.971Z,-10.02
2016-01-07T03:08:22.611Z,-10.04
2016-01-07T03:08:37.908Z,-10.02
2016-01-07T03:08:53.424Z,-10.06
2016-01-07T03:09:09.004Z,-10.04
2016-01-07T03:09:24.488Z,-10.02
2016-01-07T03:09:40.192Z,-10.01
2016-01-07T03:09:55.442Z,-9.98
2016-01-07T03:10:11.085Z,-10.09
2016-01-07T03:10:26.445Z,-10.09
2016-01-07T03:10:42.070Z,-10.02
2016-01-07T03:10:56.540Z,-10.07
2016-01-07T03:11:11.775Z,-10.1
2016-01-07T03:11:41.243Z,-10.1
2016-01-07T03:11:56.637Z,-10.04
2016-01-07T03:12:11.903Z,-10.06
2016-01-07T03:12:27.481Z,-9.99
2016-01-07T03:12:43.012Z,-10.02
2016-01-07T03:12:58.282Z,-10.09
2016-01-07T03:13:13.625Z,-10.12
2016-01-07T03:13:29.157Z,-10.06
2016-01-07T03:13:44.297Z,-10.09
2016-01-07T03:13:59.612Z,-10.1
2016-01-07T03:14:14.784Z,-10.04
2016-01-07T03:14:30.112Z,-10.1
2016-01-07T03:14:45.862Z,-10.07
2016-01-07T03:15:01.051Z,-10.07
2016-01-07T03:15:16.208Z,-10.06
2016-01-07T03:15:31.551Z,-10.06
2016-01-07T03:15:47.192Z,-10.06
2016-01-07T03:16:02.445Z,-10.07
2016-01-07T03:16:17.695Z,-10.02
2016-01-07T03:16:33.039Z,-10.07
2016-01-07T03:16:48.336Z,-10.1
2016-01-07T03:17:04.198Z,-10.06
2016-01-07T03:17:19.573Z,-10.09
2016-01-07T03:17:35.089Z,-9.99
2016-01-07T03:17:50.448Z,-10.07
2016-01-07T03:18:05.873Z,-10.02
2016-01-07T03:18:21.373Z,-10.06
2016-01-07T03:18:37.123Z,-10.1